• Join FlightAware (Why Join?)
  • Login
  • US Flag 
04:28AM EDT


 

Airport Tracker/Info


-or-


 

Live Flight TrackerFlight Track Log ✈ BWA481 ✈ 22-Apr-2013 ✈ KFLL - TTPP / POS

Flight Track Log - Related Links

Times and Time Zones

All times are in EDT time to prevent confusion due to time zone crossing. See the BWA481 flight status page for this flight to view local times or setup timezone preferences in your user account.

Time Position Orientation Groundspeed Altitude Reporting Facility
EDT Latitude Longitude Course Direction KTS MPH feet Rate Location/Type
06:48PM 26.0750 -80.1297 89° East 177 204 800  Level Miami Center
06:49PM 26.0772 -80.0303 89° East 257 296 3,700 1,440 Climbing Miami Center
06:50PM 26.0792 -79.9472 88° East 266 306 4,500 1,740 Climbing Miami Center
06:52PM 26.0839 -79.8153 88° East 296 341 8,400 2,280 Climbing Miami Center
06:53PM 26.0628 -79.7269 105° East 296 341 10,600 2,100 Climbing Miami Center
06:54PM 26.0353 -79.6222 106° East 316 364 12,600 2,460 Climbing Miami Center
06:55PM 26.0061 -79.5106 106° East 348 400 15,600 2,940 Climbing Miami Center
06:56PM 25.9789 -79.4014 105° East 369 425 18,500 2,460 Climbing Miami Center
06:57PM 25.9600 -79.2717 99° East 374 430 20,600 1,800 Climbing Miami Center
06:58PM 25.9472 -79.1628 97° East 391 450 22,200 1,680 Climbing Miami Center
06:59PM 25.8969 -79.0439 115° Southeast 396 456 24,000 1,800 Climbing Miami Center
07:00PM 25.8278 -78.9158 121° Southeast 412 474 25,900 1,740 Climbing Miami Center
07:01PM 25.7603 -78.7947 122° Southeast 442 509 27,500 1,500 Climbing Miami Center
07:02PM 25.6931 -78.6736 122° Southeast 454 522 29,000 1,320 Climbing Miami Center
07:03PM 25.6256 -78.5483 121° Southeast 466 536 30,200 960 Climbing Miami Center
07:04PM 25.5578 -78.4206 120° Southeast 476 548 31,000 1,080 Climbing Miami Center
07:05PM 25.4883 -78.2883 120° Southeast 481 554 32,400 1,440 Climbing Miami Center
07:06PM 25.4183 -78.1564 120° Southeast 486 559 33,900 1,260 Climbing Miami Center
07:07PM 25.3483 -78.0292 121° Southeast 486 559 35,000 1,020 Climbing Miami Center
07:08PM 25.2761 -77.9067 123° Southeast 486 559 36,000 900 Climbing Miami Center
07:09PM 25.2061 -77.7753 120° Southeast 486 559 36,800 480 Climbing Miami Center
07:10PM 25.1336 -77.6461 122° Southeast 491 565 37,000 60 Climbing Miami Center
07:11PM 25.0611 -77.5128 121° Southeast 497 572 37,000  Level Miami Center
07:12PM 24.9864 -77.3792 122° Southeast 497 572 37,000  Level Miami Center
07:13PM 24.9136 -77.2483 122° Southeast 503 579 37,000  Level Miami Center
07:14PM 24.8408 -77.1222 122° Southeast 498 573 37,000  Level Miami Center
07:15PM 24.7678 -76.9917 122° Southeast 498 573 37,000  Level Miami Center
07:16PM 24.6947 -76.8633 122° Southeast 498 573 37,000  Level Miami Center
07:17PM 24.6236 -76.7353 121° Southeast 498 573 37,000  Level Miami Center
07:18PM 24.5481 -76.6053 123° Southeast 503 579 37,000  Level Miami Center
07:19PM 24.4767 -76.4731 121° Southeast 503 579 37,000  Level Miami Center
07:20PM 24.4094 -76.3636 124° Southeast 503 579 37,000  Level Miami Center
07:21PM 24.3381 -76.2317 121° Southeast 503 579 37,000  Level Miami Center
07:22PM 24.2642 -76.1019 122° Southeast 503 579 37,000  Level Miami Center
07:23PM 24.1903 -75.9750 123° Southeast 503 579 37,000  Level Miami Center
07:24PM 24.1164 -75.8481 123° Southeast 503 579 37,000  Level Miami Center
07:25PM 24.0444 -75.7211 122° Southeast 498 573 37,000  Level Miami Center
07:26PM 23.9703 -75.5944 123° Southeast 498 573 37,000  Level Miami Center
07:27PM 23.8961 -75.4703 123° Southeast 498 573 37,000  Level Miami Center
07:28PM 23.8258 -75.3414 121° Southeast 498 573 37,000  Level Miami Center
07:29PM 23.7514 -75.2153 123° Southeast 498 573 37,000  Level Miami Center
07:30PM 23.6767 -75.0914 123° Southeast 498 573 37,000  Level Miami Center
07:31PM 23.6022 -74.9656 123° Southeast 498 573 37,000  Level Miami Center
07:32PM 23.5208 -74.8286 123° Southeast 498 573 37,000  Level Miami Center
07:33PM 23.4439 -74.7031 124° Southeast 498 573 37,000  Level Miami Center
07:34PM 23.3753 -74.5797 121° Southeast 497 572 37,000  Level Miami Center
07:35PM 23.3000 -74.4544 123° Southeast 497 572 37,000  Level Miami Center
07:36PM 23.2269 -74.3314 123° Southeast 497 572 37,000  Level Miami Center
07:37PM 23.1517 -74.2064 123° Southeast 492 566 37,000  Level Miami Center
07:38PM 23.0806 -74.0858 123° Southeast 484 557 37,000  Level Miami Center
07:39PM 23.0072 -73.9611 123° Southeast 484 557 37,000  Level Miami Center
07:40PM 22.9297 -73.8389 125° Southeast 484 557 37,000  Level Miami Center
07:41PM 22.8561 -73.7144 123° Southeast 489 563 37,000  Level Miami Center
07:42PM 22.7803 -73.5900 123° Southeast 489 563 37,000  Level Miami Center
07:43PM 22.7047 -73.4706 124° Southeast 489 563 37,000  Level Miami Center
07:44PM 22.6350 -73.3442 121° Southeast 489 563 37,000  Level Miami Center
07:45PM 22.5547 -73.2203 125° Southeast 494 568 37,000  Level Miami Center
07:46PM 22.4850 -73.0986 122° Southeast 494 568 37,000  Level Miami Center
07:47PM 22.4108 -72.9728 123° Southeast 489 563 37,000  Level Miami Center
07:48PM 22.3344 -72.8517 124° Southeast 494 568 37,000  Level Miami Center
07:49PM 22.2603 -72.7283 123° Southeast 494 568 37,000  Level Miami Center
07:50PM 22.1836 -72.6031 123° Southeast 494 568 37,000  Level Miami Center
07:51PM 22.1092 -72.4800 123° Southeast 494 568 37,000  Level Miami Center
07:52PM 22.0325 -72.3550 123° Southeast 494 568 37,000  Level Miami Center
07:53PM 21.9581 -72.2344 124° Southeast 494 568 37,000  Level Miami Center
07:54PM 21.8811 -72.1119 124° Southeast 494 568 37,000  Level Miami Center
07:55PM 21.8042 -71.9872 124° Southeast 494 568 37,000  Level Miami Center
07:56PM 21.7272 -71.8672 125° Southeast 494 568 37,000  Level Miami Center
07:57PM 21.6522 -71.7428 123° Southeast 494 568 37,000  Level Miami Center
07:58PM 21.5750 -71.6208 124° Southeast 494 568 37,000  Level Miami Center
07:59PM 21.4978 -71.4989 124° Southeast 494 568 37,000  Level Miami Center
08:00PM 21.4183 -71.3775 125° Southeast 494 568 37,000  Level Miami Center
08:01PM 21.3350 -71.2583 127° Southeast 500 575 37,000  Level Miami Center
08:02PM 21.2592 -71.1281 122° Southeast 513 590 37,000  Level Miami Center
08:03PM 21.1836 -71.0044 123° Southeast 508 585 37,000  Level Miami Center
08:04PM 21.1081 -70.8833 124° Southeast 497 572 37,000  Level Miami Center
08:05PM 21.0347 -70.7644 123° Southeast 492 566 37,000  Level Miami Center
08:06PM 20.9569 -70.6436 125° Southeast 492 566 37,000  Level Miami Center
08:07PM 20.8811 -70.5253 124° Southeast 487 560 37,000  Level Miami Center
08:08PM 20.8033 -70.4069 125° Southeast 487 560 37,000  Level Miami Center
08:09PM 20.7275 -70.2886 124° Southeast 487 560 37,000  Level Miami Center
08:10PM 20.6514 -70.1683 124° Southeast 487 560 37,000  Level Miami Center
08:11PM 20.5756 -70.0503 124° Southeast 487 560 37,000  Level Miami Center
08:12PM 20.4975 -69.9328 125° Southeast 487 560 37,000  Level Miami Center
08:13PM 20.4192 -69.8150 125° Southeast 487 560 37,000  Level Miami Center
08:14PM 20.3450 -69.6953 123° Southeast 487 560 37,000  Level Miami Center
08:15PM 20.2667 -69.5778 125° Southeast 487 560 37,000  Level Miami Center
08:16PM 20.1903 -69.4606 125° Southeast 482 555 37,000  Level Miami Center
08:17PM 20.1139 -69.3411 124° Southeast 482 555 37,000  Level Miami Center
08:18PM 20.0353 -69.2267 126° Southeast 482 555 37,000  Level Miami Center
08:19PM 19.9589 -69.1097 125° Southeast 482 555 37,000  Level Miami Center
08:20PM 19.8803 -68.9953 126° Southeast 477 549 37,000  Level Miami Center
08:21PM 19.8036 -68.8764 124° Southeast 482 555 37,000  Level Miami Center
08:22PM 19.7386 -68.7878 128° Southeast 482 555 37,000  Level Miami Center
08:23PM 19.6339 -68.6533 130° Southeast 489 563 37,000  Level Miami Center
08:24PM 19.5667 -68.5667 129° Southeast 490 564 37,000  Level San Juan Center
08:25PM 19.4833 -68.4500 127° Southeast 490 564 37,000  Level San Juan Center
08:26PM 19.4000 -68.3333 127° Southeast 490 564 37,000  Level San Juan Center
08:27PM 19.3167 -68.2167 127° Southeast 490 564 37,000  Level San Juan Center
08:28PM 19.2333 -68.1000 127° Southeast 490 564 37,000  Level San Juan Center
08:29PM 19.1500 -67.9833 127° Southeast 490 564 37,000  Level San Juan Center
08:30PM 19.0667 -67.8833 131° Southeast 490 564 37,000  Level San Juan Center
08:31PM 18.9833 -67.7833 131° Southeast 470 541 37,000  Level San Juan Center
08:32PM 18.8667 -67.6833 141° Southeast 480 552 37,000  Level San Juan Center
08:33PM 18.7667 -67.6000 142° Southeast 480 552 37,000  Level San Juan Center
08:34PM 18.6667 -67.5000 137° Southeast 480 552 37,000  Level San Juan Center
08:35PM 18.5667 -67.4000 137° Southeast 490 564 37,000  Level San Juan Center
08:36PM 18.4667 -67.3167 142° Southeast 490 564 37,000  Level San Juan Center
08:37PM 18.3667 -67.2167 136° Southeast 490 564 37,000  Level San Juan Center
08:38PM 18.2667 -67.1167 136° Southeast 490 564 37,000  Level San Juan Center
08:39PM 18.1667 -67.0167 136° Southeast 490 564 37,000  Level San Juan Center
08:40PM 18.0667 -66.9333 142° Southeast 490 564 37,000  Level San Juan Center
08:41PM 17.9333 -66.8167 140° Southeast 480 552 37,000  Level San Juan Center
08:42PM 17.8333 -66.7333 142° Southeast 480 552 37,000  Level San Juan Center
08:43PM 17.7500 -66.6333 131° Southeast 480 552 37,000  Level San Juan Center
08:44PM 17.6500 -66.5333 136° Southeast 480 552 37,000  Level San Juan Center
08:45PM 17.5500 -66.4500 142° Southeast 480 552 37,000  Level San Juan Center
08:46PM 17.4500 -66.3500 136° Southeast 480 552 37,000  Level San Juan Center
08:47PM 17.3500 -66.2667 141° Southeast 480 552 37,000  Level San Juan Center
08:48PM 17.2500 -66.1667 136° Southeast 480 552 37,000  Level San Juan Center
08:49PM 17.1500 -66.0833 141° Southeast 480 552 37,000  Level San Juan Center
08:50PM 17.0500 -65.9833 136° Southeast 480 552 37,000  Level San Juan Center
08:51PM 16.9500 -65.9000 141° Southeast 480 552 37,000  Level San Juan Center
08:52PM 16.8500 -65.8000 136° Southeast 480 552 37,000  Level San Juan Center
08:53PM 16.7500 -65.7167 141° Southeast 480 552 37,000  Level San Juan Center
08:54PM 16.6500 -65.6167 136° Southeast 470 541 37,000  Level San Juan Center
08:55PM 16.5500 -65.5333 141° Southeast 470 541 37,000 -60 Level San Juan Center
08:56PM 16.4500 -65.4333 136° Southeast 470 541 36,900 -600 Descending San Juan Center
08:57PM 16.3500 -65.3500 141° Southeast 470 541 35,900 -960 Descending San Juan Center
08:58PM 16.2500 -65.2667 141° Southeast 470 541 35,000 -480 Descending San Juan Center
08:59PM 16.1500 -65.1667 136° Southeast 460 529 35,000  Level San Juan Center
09:00PM 16.0333 -65.0833 146° Southeast 460 529 35,000  Level San Juan Center
09:01PM 15.9500 -65.0000 136° Southeast 460 529 35,000  Level San Juan Center
09:02PM 15.8500 -64.9167 141° Southeast 460 529 35,000  Level San Juan Center
09:03PM 15.7500 -64.8333 141° Southeast 470 541 35,000  Level San Juan Center
09:04PM 15.6667 -64.7333 131° Southeast 480 552 35,000  Level San Juan Center
09:05PM 15.5667 -64.6333 136° Southeast 480 552 35,000  Level San Juan Center
09:06PM 15.4667 -64.5500 141° Southeast 470 541 35,000  Level San Juan Center
09:07PM 15.3667 -64.4667 141° Southeast 470 541 35,000  Level San Juan Center
09:08PM 15.2667 -64.3667 136° Southeast 470 541 35,000  Level San Juan Center
09:09PM 15.1667 -64.2833 141° Southeast 470 541 35,000  Level San Juan Center
09:11PM 15.0079 -64.1413 136° Southeast  Level FlightAware Approximate
09:18PM 14.2497 -63.6771 149° Southeast  Level FlightAware Approximate
09:19PM 14.1410 -63.6114 150° Southeast  Level FlightAware Approximate
09:20PM 14.0315 -63.5474 150° Southeast  Level FlightAware Approximate
09:21PM 13.9219 -63.4835 150° Southeast  Level FlightAware Approximate
09:22PM 13.8123 -63.4196 150° Southeast  Level FlightAware Approximate
09:23PM 13.7026 -63.3558 151° Southeast  Level FlightAware Approximate
09:24PM 13.5930 -63.2920 151° Southeast  Level FlightAware Approximate
09:25PM 13.4833 -63.2283 151° Southeast  Level FlightAware Approximate
09:26PM 13.3737 -63.1647 151° Southeast  Level FlightAware Approximate
09:27PM 13.2640 -63.1011 151° Southeast  Level FlightAware Approximate
09:28PM 13.1564 -63.0339 148° Southeast  Level FlightAware Approximate
09:29PM 13.0496 -62.9653 148° Southeast  Level FlightAware Approximate
09:30PM 12.9428 -62.8968 148° Southeast  Level FlightAware Approximate
09:31PM 12.8360 -62.8283 148° Southeast  Level FlightAware Approximate
09:32PM 12.7292 -62.7599 148° Southeast  Level FlightAware Approximate
09:33PM 12.6223 -62.6916 148° Southeast  Level FlightAware Approximate
09:34PM 12.5143 -62.6253 150° Southeast  Level FlightAware Approximate
09:35PM 12.4057 -62.5600 149° Southeast  Level FlightAware Approximate
09:36PM 12.2975 -62.4940 149° Southeast  Level FlightAware Approximate
09:37PM 12.1893 -62.4282 149° Southeast  Level FlightAware Approximate
09:38PM 12.0810 -62.3623 149° Southeast  Level FlightAware Approximate
09:39PM 11.9700 -62.3017 154° Southeast  Level FlightAware Approximate
09:40PM 11.8665 -62.2285 145° Southeast  Level FlightAware Approximate
09:41PM 11.7603 -62.1595 150° Southeast  Level FlightAware Approximate
09:42PM 11.6517 -62.0943 150° Southeast  Level FlightAware Approximate
09:43PM 11.5431 -62.0292 150° Southeast  Level FlightAware Approximate
09:44PM 11.4347 -61.9637 149° Southeast  Level FlightAware Approximate
09:45PM 11.3270 -61.8973 149° Southeast  Level FlightAware Approximate
09:46PM 11.2191 -61.8309 149° Southeast  Level FlightAware Approximate
09:47PM 11.1113 -61.7646 149° Southeast  Level FlightAware Approximate
09:48PM 11.0027 -61.6996 151° Southeast  Level FlightAware Approximate
09:49PM 10.8921 -61.6382 151° Southeast  Level FlightAware Approximate
09:50PM 10.7812 -61.5776 152° Southeast  Level FlightAware Approximate
09:51PM 10.6717 -61.5144 147° Southeast  Level FlightAware Approximate
09:52PM 10.5663 -61.4442 147° Southeast  Level FlightAware Approximate
09:53PM 10.5954 -61.3372 154° Southeast  Level Estimated
09:54PM 10.5954 -61.3372 11° North  Level Estimated
09:55PM 10.5954 -61.3372 11° North  Level Estimated
09:56PM 10.5954 -61.3372 11° North  Level Estimated
09:57PM 10.5954 -61.3372 11° North  Level Estimated
09:58PM 10.5954 -61.3372 11° North  Level Estimated
09:59PM 10.5954 -61.3372 11° North  Level Estimated
10:00PM 10.5954 -61.3372 11° North  Level Estimated
10:01PM 10.5954 -61.3372 11° North  Level Estimated
10:02PM 10.5954 -61.3372 11° North  Level Estimated
10:03PM 10.5954 -61.3372 11° North  Level Estimated
10:04PM 10.5954 -61.3372 11° North  Level Estimated
10:05PM 10.5954 -61.3372 11° North  Level Estimated
10:06PM 10.5954 -61.3372 11° North  Level Estimated
10:07PM 10.5954 -61.3372 11° North  Level Estimated
10:08PM 10.5954 -61.3372 11° North  Level Estimated
10:09PM 10.5954 -61.3372 11° North  Level Estimated
10:10PM 10.5954 -61.3372 11° North  Level Estimated
10:11PM 10.5954 -61.3372 11° North  Level Estimated
10:12PM 10.5954 -61.3372 11° North  Level Estimated
10:13PM 10.5954 -61.3372 11° North  Level Estimated
10:14PM 10.5954 -61.3372 11° North  Level Estimated